Time;durP1;ratioP1;P1;durP2;ratioP2;P2;SDS_P1;SDS_P2;PMS_P1;PMS_P2;Temp;Humidity;BMP_temperature;BMP_pressure;BME280_temperature;BME280_humidity;BME280_pressure;Samples;Min_cycle;Max_cycle;Signal;HPM_P1;HPM_P2
2022/01/31 00:01:14;;;;;;;22.50;4.50;;;;;;;4.31;61.43;98491.44;221068;1277;141672;-56
2022/01/31 00:06:17;;;;;;;20.70;3.90;;;;;;;4.26;61.40;98496.04;220546;1279;139935;-59
2022/01/31 00:11:21;;;;;;;15.20;3.90;;;;;;;4.24;60.84;98494.92;220633;1277;139292;-58
2022/01/31 00:16:31;;;;;;;18.70;3.00;;;;;;;4.22;60.76;98500.65;220861;1277;139452;-57
2022/01/31 00:21:34;;;;;;;11.20;3.50;;;;;;;4.17;60.48;98493.50;220700;1278;139218;-58
2022/01/31 00:26:37;;;;;;;17.00;3.10;;;;;;;4.16;60.27;98502.67;220899;1277;140552;-59
2022/01/31 00:31:40;;;;;;;17.80;3.40;;;;;;;4.12;60.09;98497.56;220918;1276;139641;-59
2022/01/31 00:36:43;;;;;;;12.90;3.10;;;;;;;4.08;60.01;98509.73;220989;1277;140610;-59
2022/01/31 00:41:46;;;;;;;27.30;4.50;;;;;;;4.08;60.26;98509.01;220791;1277;139474;-57
2022/01/31 00:46:54;;;;;;;28.40;5.50;;;;;;;4.05;60.77;98507.02;220597;1279;141244;-56
2022/01/31 00:51:58;;;;;;;24.70;4.70;;;;;;;4.07;61.01;98500.60;220699;1279;139110;-57
2022/01/31 00:57:01;;;;;;;28.70;5.40;;;;;;;4.03;61.09;98499.55;221131;1277;140351;-57
2022/01/31 01:02:05;;;;;;;26.20;5.60;;;;;;;3.91;61.40;98505.85;220974;1277;138773;-59
2022/01/31 01:07:08;;;;;;;21.20;4.20;;;;;;;3.81;61.73;98509.09;220705;1279;138786;-57
2022/01/31 01:12:14;;;;;;;17.90;3.40;;;;;;;3.58;62.27;98508.51;220664;1277;140290;-57
2022/01/31 01:17:17;;;;;;;16.80;3.90;;;;;;;3.37;63.02;98497.30;220819;1277;139373;-59
2022/01/31 01:22:20;;;;;;;23.20;5.00;;;;;;;3.35;63.32;98486.34;220760;1279;139385;-58
2022/01/31 01:27:24;;;;;;;21.50;4.60;;;;;;;3.32;63.72;98480.13;220482;1279;139265;-60
2022/01/31 01:32:32;;;;;;;21.60;4.80;;;;;;;3.30;63.83;98479.70;220499;1277;139571;-58
2022/01/31 01:37:35;;;;;;;22.30;4.40;;;;;;;3.31;63.55;98466.86;221151;1277;138616;-58
2022/01/31 01:42:41;;;;;;;24.10;4.30;;;;;;;3.34;63.41;98468.16;221016;1277;138799;-57
2022/01/31 01:47:45;;;;;;;24.80;4.10;;;;;;;3.30;63.05;98462.70;220455;1279;139069;-58
2022/01/31 01:52:50;;;;;;;19.40;4.00;;;;;;;3.29;63.01;98465.89;220695;1278;138284;-57
2022/01/31 01:57:53;;;;;;;19.90;3.80;;;;;;;3.34;62.87;98477.61;220481;1278;139210;-57
2022/01/31 02:02:56;;;;;;;19.80;3.80;;;;;;;3.34;62.48;98481.64;220664;1277;138899;-60
2022/01/31 02:07:59;;;;;;;19.30;4.00;;;;;;;3.35;62.48;98473.55;220943;1277;139548;-59
2022/01/31 02:13:07;;;;;;;21.80;3.80;;;;;;;3.36;62.23;98466.50;221082;1277;138928;-60
2022/01/31 02:18:31;;;;;;;20.60;3.70;;;;;;;3.33;62.27;98452.08;220374;1280;139187;-60
2022/01/31 02:23:35;;;;;;;18.10;3.70;;;;;;;3.29;62.21;98451.34;220754;1279;138649;-58
2022/01/31 02:29:13;;;;;;;15.40;3.30;;;;;;;3.30;62.11;98445.52;220652;1277;140451;-59
2022/01/31 02:34:17;;;;;;;17.40;3.40;;;;;;;3.32;61.83;98424.41;220639;1278;138460;-59
2022/01/31 02:39:20;;;;;;;17.40;3.70;;;;;;;3.33;61.82;98418.41;220416;1281;138879;-59
2022/01/31 02:44:24;;;;;;;20.90;4.00;;;;;;;3.36;61.54;98409.87;220605;1275;139169;-59
2022/01/31 02:49:54;;;;;;;20.30;3.50;;;;;;;3.40;61.32;98404.79;221039;1277;140649;-57
2022/01/31 02:54:59;;;;;;;18.40;3.60;;;;;;;3.38;61.24;98391.35;220939;1277;138752;-59
2022/01/31 03:00:03;;;;;;;21.20;4.30;;;;;;;3.39;60.90;98406.02;220732;1279;138998;-59
2022/01/31 03:05:33;;;;;;;18.60;3.70;;;;;;;3.37;60.75;98401.61;220357;1279;139276;-60
2022/01/31 03:10:37;;;;;;;17.40;3.50;;;;;;;3.34;60.75;98399.60;220670;1277;139132;-59
2022/01/31 03:15:41;;;;;;;18.80;3.20;;;;;;;3.31;60.44;98396.04;220647;1279;139307;-59
2022/01/31 03:20:46;;;;;;;11.20;2.70;;;;;;;3.31;60.31;98396.90;220388;1279;139268;-57
2022/01/31 03:25:49;;;;;;;15.30;3.20;;;;;;;3.28;60.21;98391.44;220753;1277;138545;-60
2022/01/31 03:30:53;;;;;;;19.40;3.00;;;;;;;3.26;60.10;98387.65;221004;1277;138783;-60
2022/01/31 03:35:56;;;;;;;15.00;3.40;;;;;;;3.26;60.17;98385.73;220482;1279;139244;-59
2022/01/31 03:40:59;;;;;;;17.20;3.00;;;;;;;3.23;59.85;98378.52;220477;1278;138959;-60
2022/01/31 03:46:03;;;;;;;17.20;2.70;;;;;;;3.23;59.92;98383.58;220656;1277;139477;-60
2022/01/31 03:51:07;;;;;;;19.30;3.70;;;;;;;3.21;59.59;98381.22;220911;1277;139576;-58
2022/01/31 03:56:10;;;;;;;16.20;3.30;;;;;;;3.23;59.87;98371.84;220601;1279;139204;-58
2022/01/31 04:01:26;;;;;;;17.70;3.20;;;;;;;3.27;59.63;98364.84;220253;1281;138388;-60
2022/01/31 04:06:29;;;;;;;11.50;2.60;;;;;;;3.25;59.42;98361.41;220515;1280;138450;-59
2022/01/31 04:11:33;;;;;;;13.10;3.00;;;;;;;3.25;59.50;98346.35;220897;1277;138713;-60
2022/01/31 04:16:36;;;;;;;17.40;2.60;;;;;;;3.27;59.31;98341.16;220785;1279;139517;-61
2022/01/31 04:21:39;;;;;;;14.80;2.70;;;;;;;3.29;59.32;98335.47;220675;1279;140732;-61
2022/01/31 04:26:45;;;;;;;16.80;2.80;;;;;;;3.29;59.01;98336.86;220867;1277;139320;-59
2022/01/31 04:31:51;;;;;;;18.70;3.40;;;;;;;3.27;58.96;98342.76;221106;1277;139095;-59
2022/01/31 04:36:54;;;;;;;19.60;3.40;;;;;;;3.23;58.96;98349.06;220599;1279;139070;-58
2022/01/31 04:41:57;;;;;;;15.60;2.90;;;;;;;3.19;58.94;98348.16;220430;1279;139080;-58
2022/01/31 04:47:00;;;;;;;71.10;38.50;;;;;;;3.17;59.04;98347.05;220419;1279;139018;-61
2022/01/31 04:52:03;;;;;;;21.40;4.70;;;;;;;3.22;59.31;98342.78;221020;1277;138968;-61
2022/01/31 04:57:08;;;;;;;20.10;4.20;;;;;;;3.25;59.26;98333.54;220667;1277;138782;-59
2022/01/31 05:02:11;;;;;;;15.30;3.20;;;;;;;3.26;59.07;98321.22;220440;1278;138865;-59
2022/01/31 05:07:15;;;;;;;34.50;15.10;;;;;;;3.29;59.26;98320.23;220655;1277;139137;-62
2022/01/31 05:12:18;;;;;;;17.80;4.20;;;;;;;3.42;59.49;98315.27;220845;1277;138922;-61
2022/01/31 05:17:21;;;;;;;22.80;4.20;;;;;;;3.42;59.20;98313.85;220541;1279;138932;-62
2022/01/31 05:22:24;;;;;;;24.60;3.40;;;;;;;3.37;58.82;98317.41;220627;1279;140147;-59
2022/01/31 05:27:27;;;;;;;16.30;3.70;;;;;;;3.37;59.09;98309.36;220611;1279;139251;-60
2022/01/31 05:32:30;;;;;;;13.80;2.90;;;;;;;3.40;58.95;98297.29;220977;1277;138608;-61
2022/01/31 05:37:34;;;;;;;17.90;3.30;;;;;;;3.42;58.95;98286.34;220791;1277;165644;-59
2022/01/31 05:42:37;;;;;;;21.00;3.80;;;;;;;3.43;58.83;98279.09;220292;1280;140682;-60
2022/01/31 05:47:40;;;;;;;21.20;3.40;;;;;;;3.44;58.73;98267.30;220478;1277;139099;-58
2022/01/31 05:52:44;;;;;;;19.30;4.30;;;;;;;3.43;58.47;98247.71;220935;1277;139029;-59
2022/01/31 05:57:48;;;;;;;13.70;3.30;;;;;;;3.40;58.44;98236.27;220714;1278;138772;-57
2022/01/31 06:02:58;;;;;;;18.60;3.50;;;;;;;3.38;58.46;98225.33;220404;1280;138658;-56
2022/01/31 06:08:02;;;;;;;21.80;3.80;;;;;;;3.34;58.42;98226.38;220509;1278;138819;-59
2022/01/31 06:13:05;;;;;;;19.80;4.40;;;;;;;3.30;58.74;98224.65;221183;1277;140218;-59
2022/01/31 06:18:08;;;;;;;13.80;3.50;;;;;;;3.24;58.55;98222.30;220809;1277;138736;-61
2022/01/31 06:23:12;;;;;;;17.80;4.20;;;;;;;3.20;58.60;98217.75;220224;1279;139173;-59
2022/01/31 06:28:15;;;;;;;20.60;4.20;;;;;;;3.17;59.01;98210.15;220705;1277;139038;-57
2022/01/31 06:33:18;;;;;;;20.00;4.20;;;;;;;3.17;58.67;98207.73;220836;1277;139426;-61
2022/01/31 06:38:22;;;;;;;26.40;4.90;;;;;;;3.15;58.82;98209.71;220664;1278;139367;-56
2022/01/31 06:43:25;;;;;;;23.80;4.70;;;;;;;3.11;58.52;98199.90;220325;1279;139259;-59
2022/01/31 06:48:28;;;;;;;24.80;5.00;;;;;;;3.08;58.85;98201.59;220564;1279;138759;-60
2022/01/31 06:53:32;;;;;;;19.10;4.50;;;;;;;3.08;58.75;98200.20;220962;1277;138502;-56
2022/01/31 06:58:35;;;;;;;20.50;4.60;;;;;;;3.06;58.96;98196.45;220747;1277;138685;-60
2022/01/31 07:03:40;;;;;;;17.20;3.90;;;;;;;3.04;59.01;98190.05;220275;1279;139963;-57
2022/01/31 07:08:43;;;;;;;18.50;5.10;;;;;;;3.09;59.07;98180.41;220436;1280;139748;-57
2022/01/31 07:13:49;;;;;;;38.40;11.20;;;;;;;3.15;59.34;98179.09;220951;1277;139476;-57
2022/01/31 07:18:58;;;;;;;24.60;5.70;;;;;;;3.22;59.24;98178.02;220704;1277;140384;-57
2022/01/31 07:29:14;;;;;;;23.10;4.80;;;;;;;3.34;59.12;98171.17;220487;1280;138962;-56
2022/01/31 07:34:18;;;;;;;22.40;5.80;;;;;;;3.37;59.09;98166.46;220831;1279;139599;-59
2022/01/31 07:39:21;;;;;;;20.20;5.00;;;;;;;3.39;59.10;98153.77;220735;1279;138665;-57
2022/01/31 07:44:24;;;;;;;22.50;4.70;;;;;;;3.44;58.96;98145.28;220215;1281;139828;-59
2022/01/31 07:49:27;;;;;;;19.10;5.40;;;;;;;3.47;58.77;98142.48;220576;1277;140261;-58
2022/01/31 07:54:30;;;;;;;17.60;4.50;;;;;;;3.46;58.84;98138.17;220844;1277;138700;-57
2022/01/31 07:59:33;;;;;;;21.90;4.70;;;;;;;3.50;58.92;98128.16;220733;1277;139663;-60
2022/01/31 08:04:36;;;;;;;22.10;6.90;;;;;;;3.57;59.16;98128.16;220309;1281;138567;-60
2022/01/31 08:09:40;;;;;;;23.10;7.90;;;;;;;3.68;59.14;98116.95;220285;1279;139080;-57
2022/01/31 08:14:44;;;;;;;26.00;5.90;;;;;;;3.80;58.91;98115.48;220797;1278;139064;-58
2022/01/31 08:19:47;;;;;;;20.20;5.10;;;;;;;3.76;58.72;98108.98;220712;1277;138847;-58
2022/01/31 08:24:50;;;;;;;27.20;5.70;;;;;;;3.79;58.68;98106.20;220524;1280;138409;-59
2022/01/31 08:30:00;;;;;;;19.90;5.40;;;;;;;3.79;58.81;98102.38;220298;1277;139879;-59
2022/01/31 08:40:26;;;;;;;26.40;5.70;;;;;;;3.79;58.79;98086.41;220645;1280;139834;-59
2022/01/31 08:45:29;;;;;;;21.10;5.70;;;;;;;3.79;58.71;98082.88;220986;1277;138766;-58
2022/01/31 08:50:32;;;;;;;28.00;5.60;;;;;;;3.81;59.01;98076.66;220664;1280;139199;-60
2022/01/31 08:55:35;;;;;;;25.90;5.50;;;;;;;3.81;58.65;98066.46;220921;1277;139507;-59
2022/01/31 09:00:38;;;;;;;24.10;4.80;;;;;;;3.81;58.83;98063.52;220849;1277;138793;-59
2022/01/31 09:05:41;;;;;;;20.30;4.30;;;;;;;3.82;58.80;98062.55;220417;1280;138633;-59
2022/01/31 09:10:44;;;;;;;20.60;5.10;;;;;;;3.85;58.84;98057.86;220448;1277;138740;-59
2022/01/31 09:15:47;;;;;;;18.50;4.70;;;;;;;3.88;58.68;98049.94;220935;1277;138623;-59
2022/01/31 09:20:50;;;;;;;21.80;5.40;;;;;;;3.88;58.45;98038.92;220672;1277;138446;-61
2022/01/31 09:25:55;;;;;;;23.40;6.20;;;;;;;3.87;58.66;98038.95;220320;1280;138705;-59
2022/01/31 09:30:58;;;;;;;20.10;6.20;;;;;;;3.88;58.59;98040.67;220283;1280;139873;-60
2022/01/31 09:36:01;;;;;;;24.70;6.20;;;;;;;3.94;58.67;98027.02;221061;1277;138471;-60
2022/01/31 09:41:04;;;;;;;27.00;6.70;;;;;;;3.96;58.33;98025.34;220768;1277;138984;-59
2022/01/31 09:51:14;;;;;;;20.00;6.80;;;;;;;3.96;58.28;97997.64;220408;1278;140158;-59
2022/01/31 09:56:21;;;;;;;27.00;7.50;;;;;;;3.97;58.18;97985.11;221003;1277;141197;-61
2022/01/31 10:01:34;;;;;;;27.50;7.80;;;;;;;3.97;58.15;97978.10;220949;1277;138562;-60
2022/01/31 10:06:39;;;;;;;39.80;15.10;;;;;;;4.03;58.49;97958.15;220193;1279;138871;-59
2022/01/31 10:11:49;;;;;;;32.10;11.10;;;;;;;4.14;58.58;97958.05;220397;1277;139477;-59
2022/01/31 10:16:52;;;;;;;33.00;9.00;;;;;;;4.16;58.29;97947.94;220835;1278;142549;-59
2022/01/31 10:22:17;;;;;;;26.90;8.00;;;;;;;4.17;57.97;97949.63;220662;1278;138811;-58
2022/01/31 10:27:34;;;;;;;35.00;9.10;;;;;;;4.18;58.13;97943.31;220332;1280;139120;-58
2022/01/31 10:32:41;;;;;;;31.50;9.00;;;;;;;4.21;58.36;97930.64;220406;1277;139058;-58
2022/01/31 10:37:45;;;;;;;27.80;7.90;;;;;;;4.23;58.15;97926.84;221011;1277;139314;-59
2022/01/31 10:53:39;;;;;;;45.30;14.70;;;;;;;4.13;58.43;97904.91;219882;1281;139028;-59
2022/01/31 10:59:02;;;;;;;36.20;10.10;;;;;;;4.18;58.20;97900.14;220827;1277;138575;-58
2022/01/31 11:04:11;;;;;;;31.20;8.30;;;;;;;4.15;58.46;97895.72;220747;1277;139385;-59
2022/01/31 11:09:16;;;;;;;32.00;9.60;;;;;;;4.12;58.05;97886.75;220517;1279;139366;-58
2022/01/31 11:14:20;;;;;;;24.60;8.30;;;;;;;4.11;58.39;97879.80;220390;1279;140600;-59
2022/01/31 11:19:31;;;;;;;33.30;9.10;;;;;;;4.12;58.42;97878.31;220951;1277;138973;-59
2022/01/31 11:24:55;;;;;;;33.70;9.40;;;;;;;4.09;58.32;97876.19;220733;1277;138643;-59
2022/01/31 11:30:00;;;;;;;39.00;9.30;;;;;;;4.09;58.29;97871.85;220480;1279;139420;-59
2022/01/31 11:35:03;;;;;;;29.40;8.10;;;;;;;4.06;58.24;97867.07;220665;1277;140465;-60
2022/01/31 11:40:09;;;;;;;40.30;8.60;;;;;;;4.10;58.24;97857.38;220785;1277;139093;-60
2022/01/31 11:45:27;;;;;;;30.60;8.10;;;;;;;4.13;58.31;97858.27;220602;1277;139261;-58
2022/01/31 11:50:31;;;;;;;26.10;7.60;;;;;;;4.14;58.36;97846.79;220405;1279;139530;-59
2022/01/31 11:55:38;;;;;;;30.90;8.70;;;;;;;4.15;58.44;97841.14;220692;1277;138699;-60
2022/01/31 12:00:43;;;;;;;28.60;7.70;;;;;;;4.14;58.20;97846.45;220954;1277;139307;-58
2022/01/31 12:05:48;;;;;;;25.80;7.40;;;;;;;4.13;58.24;97841.77;220622;1277;139124;-59
2022/01/31 12:10:56;;;;;;;32.00;7.30;;;;;;;4.11;58.10;97836.95;220499;1279;140287;-58
2022/01/31 12:26:33;;;;;;;32.50;8.00;;;;;;;4.21;58.15;97826.58;220448;1277;140055;-59
2022/01/31 12:31:38;;;;;;;26.60;7.20;;;;;;;4.22;58.27;97811.44;220297;1281;139284;-58
2022/01/31 12:36:44;;;;;;;26.90;6.80;;;;;;;4.22;57.92;97802.08;220734;1277;139242;-60
2022/01/31 12:41:47;;;;;;;29.40;7.50;;;;;;;4.24;57.85;97800.94;220957;1277;139560;-59
2022/01/31 12:46:51;;;;;;;28.20;7.60;;;;;;;4.25;57.86;97796.85;220971;1276;139339;-59
2022/01/31 12:52:03;;;;;;;26.90;6.80;;;;;;;4.28;57.85;97792.30;220603;1279;140088;-60
2022/01/31 12:57:10;;;;;;;27.70;6.00;;;;;;;4.32;57.92;97785.05;220568;1277;139811;-60
2022/01/31 13:02:13;;;;;;;29.60;6.80;;;;;;;4.34;57.68;97781.06;220910;1277;141643;-59
2022/01/31 13:07:18;;;;;;;32.70;7.40;;;;;;;4.39;57.78;97785.19;220994;1277;138707;-58
2022/01/31 13:12:37;;;;;;;22.90;6.30;;;;;;;4.42;57.65;97781.10;220811;1277;139154;-58
2022/01/31 13:17:42;;;;;;;23.30;6.70;;;;;;;4.46;57.65;97780.73;220595;1277;139054;-58
2022/01/31 13:22:45;;;;;;;32.70;7.20;;;;;;;4.52;57.67;97776.31;220203;1281;139261;-58
2022/01/31 13:27:48;;;;;;;29.40;7.00;;;;;;;4.57;57.23;97773.61;220693;1278;139360;-59
2022/01/31 13:32:53;;;;;;;29.10;6.80;;;;;;;4.57;57.27;97764.65;221038;1277;139703;-60
2022/01/31 13:38:02;;;;;;;23.60;6.10;;;;;;;4.59;57.03;97762.07;220294;1280;138644;-61
2022/01/31 13:43:13;;;;;;;35.20;6.60;;;;;;;4.60;57.12;97761.98;220530;1279;138907;-57
2022/01/31 13:48:34;;;;;;;28.50;7.10;;;;;;;4.56;57.00;97756.44;220813;1276;138694;-60
2022/01/31 13:53:40;;;;;;;32.30;6.70;;;;;;;4.56;56.89;97758.53;220843;1277;139009;-59
2022/01/31 13:58:54;;;;;;;25.40;5.80;;;;;;;4.58;56.65;97750.89;220755;1277;139488;-58
2022/01/31 14:03:58;;;;;;;28.00;5.80;;;;;;;4.58;56.81;97740.33;220503;1277;141251;-59
2022/01/31 14:09:06;;;;;;;27.20;6.20;;;;;;;4.62;56.67;97734.48;220765;1278;138555;-60
2022/01/31 14:14:11;;;;;;;32.50;6.40;;;;;;;4.69;56.98;97728.45;221013;1277;138821;-58
2022/01/31 14:19:15;;;;;;;25.30;6.20;;;;;;;4.71;56.63;97725.37;220449;1280;139447;-58
2022/01/31 14:24:19;;;;;;;36.90;5.80;;;;;;;4.71;56.33;97720.23;220339;1280;139360;-58
2022/01/31 14:29:37;;;;;;;37.10;6.60;;;;;;;4.73;56.30;97715.02;220715;1277;138905;-58
2022/01/31 14:34:44;;;;;;;28.80;6.50;;;;;;;4.74;56.35;97721.80;220975;1277;138982;-58
2022/01/31 14:40:19;;;;;;;29.00;6.20;;;;;;;4.72;55.96;97715.78;220608;1279;140096;-58
2022/01/31 14:50:44;;;;;;;30.80;5.70;;;;;;;4.70;55.85;97720.52;220544;1279;140046;-59
2022/01/31 14:55:49;;;;;;;31.20;6.20;;;;;;;4.68;55.93;97716.89;220744;1279;138219;-59
2022/01/31 15:00:52;;;;;;;;;;;;;;;4.67;55.53;97711.00;221124;1275;138794;-60
2022/01/31 15:05:55;;;;;;;33.50;6.40;;;;;;;4.65;55.86;97711.45;221083;1277;125062;-60
2022/01/31 15:10:58;;;;;;;32.00;6.70;;;;;;;4.65;55.98;97713.95;221103;1277;138446;-61
2022/01/31 15:16:06;;;;;;;28.40;6.30;;;;;;;4.66;55.85;97717.73;220881;1277;138604;-61
2022/01/31 15:21:10;;;;;;;25.50;6.50;;;;;;;4.64;55.43;97718.75;220678;1277;139071;-61
2022/01/31 15:26:16;;;;;;;32.10;7.30;;;;;;;4.63;55.44;97731.10;221086;1275;138906;-58
2022/01/31 15:31:20;;;;;;;31.70;7.20;;;;;;;4.65;55.86;97734.31;220792;1277;138972;-59
2022/01/31 15:36:43;;;;;;;33.10;7.50;;;;;;;4.67;55.68;97738.23;220781;1277;139595;-58
2022/01/31 15:41:50;;;;;;;28.00;6.90;;;;;;;4.65;55.34;97745.23;220720;1278;139360;-60
2022/01/31 15:46:54;;;;;;;26.70;6.00;;;;;;;4.62;55.61;97752.56;220824;1277;140183;-60
2022/01/31 15:51:58;;;;;;;25.10;6.80;;;;;;;4.57;55.53;97747.09;220576;1277;140068;-61
2022/01/31 15:57:01;;;;;;;29.00;6.30;;;;;;;4.56;55.38;97749.79;220226;1281;138935;-59
2022/01/31 16:02:06;;;;;;;24.20;5.90;;;;;;;4.57;55.48;97747.80;220918;1277;138615;-62
2022/01/31 16:07:09;;;;;;;27.10;6.30;;;;;;;4.56;55.44;97745.55;220847;1278;139490;-60
2022/01/31 16:12:12;;;;;;;26.70;6.10;;;;;;;4.56;55.51;97742.41;220878;1276;139375;-59
2022/01/31 16:17:32;;;;;;;26.90;6.80;;;;;;;4.56;55.48;97747.16;220529;1277;139311;-59
2022/01/31 16:22:36;;;;;;;31.10;6.90;;;;;;;4.56;55.41;97749.26;221056;1277;138745;-60
2022/01/31 16:27:42;;;;;;;28.90;5.80;;;;;;;4.59;55.53;97746.59;221121;1277;139133;-60
2022/01/31 16:32:46;;;;;;;30.00;6.30;;;;;;;4.66;55.48;97759.56;220525;1277;138575;-59
2022/01/31 16:37:51;;;;;;;31.50;6.90;;;;;;;4.64;55.45;97759.52;220611;1277;139325;-60
2022/01/31 16:42:54;;;;;;;47.90;16.00;;;;;;;4.59;55.21;97750.66;221323;1277;138637;-60
2022/01/31 16:47:57;;;;;;;31.40;6.80;;;;;;;4.57;55.53;97755.90;220772;1277;138955;-60
2022/01/31 16:53:05;;;;;;;34.10;8.00;;;;;;;4.55;55.45;97758.42;220142;1280;139115;-62
2022/01/31 16:58:11;;;;;;;33.80;8.10;;;;;;;4.54;55.39;97759.21;220277;1279;140011;-61
2022/01/31 17:03:14;;;;;;;;;;;;;;;4.46;55.48;97754.02;220682;1277;138958;-60
2022/01/31 17:08:17;;;;;;;31.40;9.70;;;;;;;4.38;55.45;97750.63;220863;1277;125320;-60
2022/01/31 17:13:20;;;;;;;33.70;8.90;;;;;;;4.35;55.70;97747.84;220241;1280;139168;-61
2022/01/31 17:18:23;;;;;;;115.70;58.20;;;;;;;4.48;56.48;97756.38;220601;1278;138854;-59
2022/01/31 17:23:26;;;;;;;41.80;12.70;;;;;;;4.75;56.67;97756.56;220466;1279;139738;-63
2022/01/31 17:28:29;;;;;;;32.80;10.10;;;;;;;4.74;55.73;97762.59;220561;1278;139475;-60
2022/01/31 17:33:33;;;;;;;43.00;9.90;;;;;;;4.63;55.72;97761.84;220867;1276;139145;-60
2022/01/31 17:38:37;;;;;;;32.20;8.60;;;;;;;4.54;55.54;97764.81;220860;1277;216491;-59
2022/01/31 17:43:40;;;;;;;36.50;9.00;;;;;;;4.45;55.72;97762.84;220502;1279;138665;-59
2022/01/31 17:48:45;;;;;;;33.80;8.90;;;;;;;4.41;56.12;97768.52;220484;1279;139280;-59
2022/01/31 17:53:48;;;;;;;39.40;10.10;;;;;;;4.55;56.36;97768.98;220778;1278;138994;-59
2022/01/31 17:58:52;;;;;;;36.20;8.70;;;;;;;4.52;56.30;97771.61;220756;1280;139248;-59
2022/01/31 18:03:55;;;;;;;35.70;9.30;;;;;;;4.46;56.05;97778.78;220657;1277;138780;-60
2022/01/31 18:08:59;;;;;;;32.40;9.10;;;;;;;4.43;56.00;97775.63;220643;1279;139315;-60
2022/01/31 18:14:03;;;;;;;143.30;76.60;;;;;;;4.42;56.36;97775.15;220933;1277;138567;-60
2022/01/31 18:19:05;;;;;;;45.20;15.10;;;;;;;4.56;56.69;97778.41;220965;1277;139908;-61
2022/01/31 18:24:09;;;;;;;45.20;10.40;;;;;;;4.56;55.92;97777.70;220599;1277;139044;-59
2022/01/31 18:29:12;;;;;;;38.40;9.40;;;;;;;4.50;56.07;97792.79;220349;1279;140419;-59
2022/01/31 18:34:18;;;;;;;38.30;10.30;;;;;;;4.44;56.19;97792.41;220799;1279;139273;-59
2022/01/31 18:39:21;;;;;;;42.90;10.10;;;;;;;4.41;56.51;97786.98;220975;1279;139359;-60
2022/01/31 18:44:24;;;;;;;32.70;10.80;;;;;;;4.37;56.11;97790.05;220869;1277;140075;-61
2022/01/31 18:49:29;;;;;;;42.20;11.30;;;;;;;4.34;56.45;97800.01;220469;1279;139011;-61
2022/01/31 18:54:32;;;;;;;39.60;10.50;;;;;;;4.32;56.32;97798.55;220717;1279;139818;-60
2022/01/31 18:59:43;;;;;;;36.00;11.00;;;;;;;4.30;56.51;97800.63;221026;1277;139168;-59
2022/01/31 19:04:48;;;;;;;39.20;11.40;;;;;;;4.27;56.35;97806.36;220497;1277;140360;-59
2022/01/31 19:09:51;;;;;;;37.10;11.10;;;;;;;4.25;56.31;97804.05;220161;1281;139142;-61
2022/01/31 19:19:57;;;;;;;36.10;12.30;;;;;;;4.19;56.84;97814.56;220829;1279;139173;-59
2022/01/31 19:25:00;;;;;;;45.10;17.10;;;;;;;4.19;57.18;97821.92;220523;1278;139747;-59
2022/01/31 19:30:04;;;;;;;47.50;15.40;;;;;;;4.29;57.24;97824.87;220532;1279;138791;-60
2022/01/31 19:35:07;;;;;;;44.20;13.70;;;;;;;4.26;56.94;97828.23;220588;1278;138798;-61
2022/01/31 19:45:32;;;;;;;44.70;13.90;;;;;;;4.14;56.95;97828.89;220812;1280;138811;-61
2022/01/31 19:50:35;;;;;;;46.60;14.10;;;;;;;4.10;57.00;97828.21;220768;1277;138939;-58
2022/01/31 19:55:38;;;;;;;44.70;14.50;;;;;;;4.08;57.21;97836.23;220608;1279;139018;-58
2022/01/31 20:00:42;;;;;;;50.30;15.60;;;;;;;4.06;57.24;97848.80;220808;1280;139701;-59
2022/01/31 20:05:46;;;;;;;44.30;15.10;;;;;;;4.03;57.44;97848.94;220721;1279;140037;-60
2022/01/31 20:10:50;;;;;;;54.10;17.40;;;;;;;3.99;57.61;97851.27;220243;1280;140637;-62
2022/01/31 20:15:53;;;;;;;59.30;18.20;;;;;;;3.98;57.59;97858.55;220348;1278;138294;-60
2022/01/31 20:20:59;;;;;;;51.60;18.50;;;;;;;3.95;57.48;97858.50;220759;1279;141583;-58
2022/01/31 20:26:04;;;;;;;46.00;16.90;;;;;;;3.92;57.75;97867.48;220601;1279;140290;-61
2022/01/31 20:31:12;;;;;;;51.60;18.70;;;;;;;3.89;57.96;97878.16;220370;1279;139030;-58
2022/01/31 20:36:25;;;;;;;57.00;20.00;;;;;;;3.88;57.97;97876.30;220375;1280;138700;-60
2022/01/31 20:46:34;;;;;;;91.10;43.00;;;;;;;3.97;58.51;97886.27;220691;1279;139138;-60
2022/01/31 20:51:38;;;;;;;72.20;26.70;;;;;;;4.07;58.69;97895.25;220697;1279;140187;-57
2022/01/31 20:56:42;;;;;;;60.60;23.00;;;;;;;4.12;58.20;97900.98;220587;1279;139468;-60
2022/01/31 21:01:45;;;;;;;58.80;22.90;;;;;;;4.07;58.04;97900.73;220402;1279;139073;-61
2022/01/31 21:06:48;;;;;;;61.00;22.20;;;;;;;4.00;58.11;97896.70;220564;1279;139245;-61
2022/01/31 21:11:51;;;;;;;68.20;24.90;;;;;;;3.96;58.15;97894.95;220919;1279;140030;-59
2022/01/31 21:16:55;;;;;;;72.00;26.80;;;;;;;3.91;58.22;97900.50;220484;1278;139986;-58
2022/01/31 21:21:58;;;;;;;71.40;28.30;;;;;;;3.88;58.24;97905.60;220414;1279;138911;-60
2022/01/31 21:27:01;;;;;;;73.60;27.00;;;;;;;3.84;58.16;97909.31;220681;1277;139971;-61
2022/01/31 21:32:05;;;;;;;65.40;26.20;;;;;;;3.79;58.21;97912.90;220829;1279;140842;-59
2022/01/31 21:37:08;;;;;;;60.90;24.30;;;;;;;3.78;58.38;97914.70;220769;1279;138885;-60
2022/01/31 21:42:11;;;;;;;63.30;26.60;;;;;;;3.80;58.56;97918.45;220751;1279;139135;-58
2022/01/31 21:47:16;;;;;;;65.50;27.70;;;;;;;3.82;58.71;97932.21;220745;1279;139588;-59
2022/01/31 21:52:19;;;;;;;71.60;29.60;;;;;;;3.83;58.80;97932.17;220797;1279;138851;-59
2022/01/31 21:57:25;;;;;;;70.10;27.20;;;;;;;3.81;59.03;97931.02;220793;1280;138776;-59
2022/01/31 22:02:28;;;;;;;65.60;28.60;;;;;;;3.82;58.84;97936.45;220634;1279;140572;-59
2022/01/31 22:07:33;;;;;;;75.00;28.30;;;;;;;3.82;58.78;97942.75;220785;1280;139371;-58
2022/01/31 22:12:38;;;;;;;75.20;29.20;;;;;;;3.81;58.77;97946.83;220736;1280;138472;-60
2022/01/31 22:17:42;;;;;;;75.10;28.90;;;;;;;3.78;58.80;97948.02;220994;1280;139724;-60
2022/01/31 22:22:45;;;;;;;69.60;26.80;;;;;;;3.72;58.49;97952.73;220850;1279;139357;-60
2022/01/31 22:27:48;;;;;;;73.10;27.80;;;;;;;3.70;58.93;97965.50;220629;1279;139155;-60
2022/01/31 22:32:51;;;;;;;77.20;29.20;;;;;;;3.70;59.02;97976.00;220729;1277;139029;-60
2022/01/31 22:37:54;;;;;;;64.40;27.90;;;;;;;3.73;58.96;97981.80;220724;1280;139739;-59
2022/01/31 22:42:57;;;;;;;81.60;30.70;;;;;;;3.76;59.27;97987.05;220722;1279;138548;-60
2022/01/31 22:48:00;;;;;;;75.30;30.90;;;;;;;3.86;59.50;97992.20;220972;1281;139419;-61
2022/01/31 22:53:04;;;;;;;82.70;32.60;;;;;;;3.89;59.26;97998.85;220692;1277;139331;-60
2022/01/31 22:58:07;;;;;;;82.20;32.70;;;;;;;3.89;59.22;98002.55;220840;1280;139679;-58
2022/01/31 23:03:10;;;;;;;84.00;35.50;;;;;;;3.86;59.20;98012.35;220989;1280;139350;-58
2022/01/31 23:08:14;;;;;;;83.70;34.40;;;;;;;3.81;59.16;98011.04;220816;1279;138983;-62
2022/01/31 23:13:17;;;;;;;91.30;34.80;;;;;;;3.77;59.26;98011.73;220870;1277;139070;-58
2022/01/31 23:18:32;;;;;;;87.70;34.90;;;;;;;3.72;59.14;98017.10;220947;1277;139949;-57
2022/01/31 23:50:58;;;;;;;87.10;35.60;;;;;;;3.12;60.92;98036.73;220752;1279;139909;-60
2022/01/31 23:56:14;;;;;;;99.70;39.10;;;;;;;3.06;61.16;98035.09;220916;1278;139128;-61
